Terri L. Brusco — WDC3034 — position and weather

sailwx.info

Track history (hours):
 
Tides and Currents Weather Stations Pressure Air Temp Water Temp Dewpoint Dewpoint Depression Visibility Wind Speed Wind Dir Waves Ship Positions

Terri L. Brusco

Owner: Brusco Tug & Barge, Inc., Longview, WA. More information available from US FCC via Universal Licensing System and Coast Guard Vessel Documentation Center.

Last reported at 2014-Oct-31 19:33 UTC. Time now 2014-Oct-31 20:02 UTC.
Position N 37°32' W 122°12'.

Length 21 m; draft 3 m.

Type: Tug. MMSI: 367001830.

Date/timePositionNaut miles runAvg speedWind from/ knotsBaromVisibWave heightAir tempDewpointWater temp
2014-Oct-31 19:33N 37°32' W 122°12'0 0.3
2014-Oct-31 18:33N 37°33' W 122°12'0 0.1
2014-Oct-31 17:33N 37°33' W 122°12'0 0.4
2014-Oct-31 16:31N 37°32' W 122°12'0 0.1
2014-Oct-31 15:32N 37°32' W 122°12'0 0.2
2014-Oct-31 14:33N 37°33' W 122°12'1 0.5
2014-Oct-31 13:24N 37°32' W 122°12'0 0.1
2014-Oct-31 12:24N 37°32' W 122°12'0 0.2
2014-Oct-31 11:33N 37°32' W 122°12'0 0.4
2014-Oct-31 10:32N 37°33' W 122°12'1 0.5
2014-Oct-31 09:12N 37°32' W 122°12'0 0.0
2014-Oct-31 08:32N 37°32' W 122°12'1 0.7
2014-Oct-31 07:33N 37°33' W 122°12'1 0.9
2014-Oct-31 06:27N 37°32' W 122°12'0 0.4
2014-Oct-31 05:30N 37°32' W 122°12'0 0.2
2014-Oct-31 04:33N 37°32' W 122°12'0 0.1
2014-Oct-31 03:33N 37°32' W 122°12'0 0.2
2014-Oct-31 02:32N 37°33' W 122°12'1 0.7
2014-Oct-31 01:32N 37°32' W 122°12'1 0.5
2014-Oct-31 00:30N 37°32' W 122°12'0 0.1
2014-Oct-30 23:33N 37°32' W 122°12'0 0.2
2014-Oct-30 22:33N 37°33' W 122°12'0 0.2
2014-Oct-30 21:33N 37°32' W 122°12'0 0.2
2014-Oct-30 20:33N 37°33' W 122°12'0 0.1
2014-Oct-30 19:31N 37°33' W 122°12'1 1.3
2014-Oct-30 18:27N 37°31' W 122°12'0 0.1
2014-Oct-30 17:28N 37°31' W 122°12'1 0.9
2014-Oct-30 16:18N 37°30' W 122°13'2 2.6
2014-Oct-30 15:33N 37°32' W 122°12'6 5.9
2014-Oct-30 14:33N 37°36' W 122°17'9 9.2
2014-Oct-30 13:33N 37°45' W 122°22'5 5.4
2014-Oct-30 12:33N 37°49' W 122°25'4 3.6
2014-Oct-30 11:33N 37°47' W 122°22'4 3.8
2014-Oct-30 10:33N 37°43' W 122°21'4 3.8
2014-Oct-30 09:33N 37°39' W 122°19'4 3.7
2014-Oct-30 08:33N 37°36' W 122°17'5 5.1
2014-Oct-30 07:33N 37°33' W 122°12'3 2.9
2014-Oct-30 06:31N 37°30' W 122°13'0 0.0
2014-Oct-30 04:32N 37°30' W 122°13'0 0.0
2014-Oct-30 03:30N 37°30' W 122°13'0 0.0
2014-Oct-30 02:33N 37°30' W 122°13'0 0.0
2014-Oct-30 01:32N 37°30' W 122°13'0 0.0
2014-Oct-30 00:33N 37°30' W 122°13'0 0.0
2014-Oct-29 23:34N 37°30' W 122°13'0 0.0
2014-Oct-29 22:31N 37°30' W 122°13'2 1.5
2014-Oct-29 21:30N 37°32' W 122°12'0 0.1
2014-Oct-29 20:24N 37°32' W 122°12'1 1.6
2014-Oct-29 19:33N 37°33' W 122°11'0 0.1
2014-Oct-29 18:33N 37°33' W 122°12'0 0.0
2014-Oct-29 17:33N 37°33' W 122°12'0 0.0
2014-Oct-29 16:33N 37°33' W 122°12'0 0.0
2014-Oct-29 15:33N 37°33' W 122°12'0 0.0
2014-Oct-29 14:33N 37°33' W 122°12'0 0.1
2014-Oct-29 13:33N 37°33' W 122°11'0 0.0
2014-Oct-29 12:33N 37°33' W 122°11'0 0.0
2014-Oct-29 11:33N 37°33' W 122°11'0 0.0
2014-Oct-29 10:33N 37°33' W 122°11'0 0.0
2014-Oct-29 09:33N 37°33' W 122°11'5 5.0
2014-Oct-29 08:33N 37°36' W 122°16'1010.3
2014-Oct-29 07:33N 37°45' W 122°22'4 4.0
2014-Oct-29 06:34N 37°49' W 122°24'8 7.5
2014-Oct-29 05:33N 37°42' W 122°20'8 7.8
2014-Oct-29 04:33N 37°35' W 122°16'5 3.7
2014-Oct-29 03:17N 37°32' W 122°12'2 2.1
2014-Oct-29 02:33N 37°30' W 122°13'0 0.0
2014-Oct-28 22:05N 37°30' W 122°13'0 0.0
2014-Oct-28 21:30N 37°30' W 122°13'0 0.0
2014-Oct-28 20:32N 37°30' W 122°13'0 0.0
2014-Oct-28 19:27N 37°30' W 122°13'0 0.0
2014-Oct-28 18:32N 37°30' W 122°13'0 0.0
2014-Oct-28 17:33N 37°30' W 122°13'0 0.0
2014-Oct-28 16:33N 37°30' W 122°13'0 0.0
2014-Oct-28 15:33N 37°30' W 122°13'3 3.0
2014-Oct-28 14:33N 37°33' W 122°12'0 0.0
2014-Oct-28 13:33N 37°33' W 122°12'0 0.0
2014-Oct-28 12:33N 37°33' W 122°12'0 0.1
2014-Oct-28 11:33N 37°33' W 122°11'0 0.0
2014-Oct-28 10:33N 37°33' W 122°11'0 0.0
2014-Oct-28 09:33N 37°33' W 122°11'0 0.0
2014-Oct-28 08:33N 37°33' W 122°11'0 0.0
2014-Oct-28 07:33N 37°33' W 122°11'0 0.0
2014-Oct-28 06:33N 37°33' W 122°11'0 0.0
2014-Oct-28 05:33N 37°33' W 122°11'0 0.1
2014-Oct-28 04:33N 37°33' W 122°12'0 0.1
2014-Oct-28 03:33N 37°33' W 122°12'0 0.0
2014-Oct-28 02:33N 37°33' W 122°12'0 0.0
2014-Oct-28 01:33N 37°33' W 122°12'0 0.0
2014-Oct-28 00:33N 37°33' W 122°12'0 0.1
2014-Oct-27 23:33N 37°33' W 122°11'0 0.0
2014-Oct-27 22:33N 37°33' W 122°11'0 0.0
2014-Oct-27 21:32N 37°33' W 122°11'0 0.0
2014-Oct-27 20:33N 37°33' W 122°11'0 0.0
2014-Oct-27 19:33N 37°33' W 122°11'0 0.0
2014-Oct-27 18:33N 37°33' W 122°11'0 0.0
2014-Oct-27 17:33N 37°33' W 122°11'0 0.1
2014-Oct-27 16:33N 37°33' W 122°12'0 0.0
2014-Oct-27 15:33N 37°33' W 122°12'0 0.0
2014-Oct-27 14:33N 37°33' W 122°12'0 0.0
2014-Oct-27 13:33N 37°33' W 122°12'0 0.0
2014-Oct-27 12:33N 37°33' W 122°12'0 0.1
2014-Oct-27 11:33N 37°33' W 122°12'0 0.0
2014-Oct-27 10:33N 37°33' W 122°11'0 0.0
2014-Oct-27 09:33N 37°33' W 122°11'0 0.0
2014-Oct-27 08:33N 37°33' W 122°11'0 0.0
2014-Oct-27 07:33N 37°33' W 122°11'0 0.0
2014-Oct-27 06:33N 37°33' W 122°11'0 0.0
2014-Oct-27 05:33N 37°33' W 122°11'0 0.0
2014-Oct-27 04:33N 37°33' W 122°11'2 1.5
2014-Oct-27 03:33N 37°34' W 122°13'7 7.1
2014-Oct-27 02:33N 37°39' W 122°19'6 5.5
2014-Oct-27 01:33N 37°45' W 122°21'6 5.8
2014-Oct-27 00:33N 37°49' W 122°25'1 1.0
2014-Oct-26 23:33N 37°49' W 122°24'9 9.0
2014-Oct-26 22:33N 37°41' W 122°20'8 7.4
2014-Oct-26 21:31N 37°35' W 122°14'4 4.4
2014-Oct-26 20:32N 37°30' W 122°13'0 0.0
2014-Oct-26 19:33N 37°30' W 122°13'0 0.1
2014-Oct-26 18:10N 37°31' W 122°13'0 0.1
2014-Oct-26 17:10N 37°30' W 122°13'0 0.0
2014-Oct-26 16:33N 37°30' W 122°13'2 1.9
2014-Oct-26 15:33N 37°32' W 122°12'2 1.6
2014-Oct-26 14:25N 37°30' W 122°13'0 0.0
2014-Oct-26 13:28N 37°30' W 122°13'0 0.0
2014-Oct-26 12:30N 37°30' W 122°13'0 0.0
2014-Oct-26 11:27N 37°30' W 122°13'0 0.0
2014-Oct-26 10:29N 37°30' W 122°13'0 0.0
2014-Oct-26 09:32N 37°30' W 122°13'0 0.0
2014-Oct-26 08:33N 37°30' W 122°13'0 0.0
2014-Oct-26 07:30N 37°30' W 122°13'0 0.0
2014-Oct-26 06:32N 37°30' W 122°13'0 0.0
2014-Oct-26 05:33N 37°30' W 122°13'0 0.0
2014-Oct-26 04:30N 37°30' W 122°13'0 0.0
2014-Oct-26 03:31N 37°30' W 122°13'0 0.0
2014-Oct-26 02:33N 37°30' W 122°13'0 0.0
2014-Oct-26 01:31N 37°30' W 122°13'0 0.0
2014-Oct-26 00:33N 37°30' W 122°13'1 1.0
2014-Oct-25 23:30N 37°31' W 122°12'3 2.7
2014-Oct-25 22:33N 37°34' W 122°13'6 6.4
2014-Oct-25 21:33N 37°38' W 122°19'7 6.6
2014-Oct-25 20:33N 37°45' W 122°21'4 4.5
2014-Oct-25 19:33N 37°48' W 122°17'2 2.3
2014-Oct-25 18:33N 37°46' W 122°14'1 1.2
2014-Oct-25 17:33N 37°47' W 122°16'9 8.6
2014-Oct-25 16:33N 37°53' W 122°24'6 5.6
2014-Oct-25 15:33N 37°58' W 122°27'4 3.9
2014-Oct-25 14:33N 37°55' W 122°25'1 0.5
2014-Oct-25 13:33N 37°55' W 122°25'1 0.5
2014-Oct-25 12:33N 37°56' W 122°25'0 0.0
2014-Oct-25 11:33N 37°56' W 122°25'0 0.0
2014-Oct-25 10:33N 37°56' W 122°25'0 0.3
2014-Oct-25 09:33N 37°55' W 122°25'0 0.4
2014-Oct-25 08:33N 37°56' W 122°25'0 0.1
2014-Oct-25 07:33N 37°56' W 122°25'3 2.7
2014-Oct-25 06:33N 37°58' W 122°26'1 1.3
2014-Oct-25 05:33N 37°59' W 122°27'2 1.8
2014-Oct-25 04:33N 37°58' W 122°26'3 3.2
2014-Oct-25 03:33N 37°55' W 122°25'0 0.1
2014-Oct-25 02:33N 37°55' W 122°25'1 1.4
2014-Oct-25 01:33N 37°53' W 122°25'4 3.9
2014-Oct-25 00:33N 37°50' W 122°26'6 5.8
2014-Oct-24 23:33N 37°55' W 122°24'4 3.8
2014-Oct-24 22:33N 37°59' W 122°27'1 0.7
2014-Oct-24 21:33N 37°59' W 122°27'0 0.0
2014-Oct-24 20:33N 37°59' W 122°27'0 0.0
2014-Oct-24 19:33N 37°59' W 122°27'0 0.0
2014-Oct-24 18:33N 37°59' W 122°27'5 4.5
2014-Oct-24 17:33N 37°55' W 122°24'4 4.3
2014-Oct-24 16:33N 37°59' W 122°27'3 3.0
2014-Oct-24 15:33N 37°56' W 122°26'3 3.2
2014-Oct-24 14:33N 37°59' W 122°27'0 0.1
2014-Oct-24 13:33N 37°59' W 122°27'0 0.0
2014-Oct-24 12:33N 37°59' W 122°27'0 0.0
2014-Oct-24 11:33N 37°59' W 122°27'0 0.0
2014-Oct-24 10:33N 37°59' W 122°27'0 0.0
2014-Oct-24 09:33N 37°59' W 122°27'0 0.0
2014-Oct-24 08:33N 37°59' W 122°27'0 0.0
2014-Oct-24 07:33N 37°59' W 122°27'0 0.0
2014-Oct-24 06:33N 37°59' W 122°27'0 0.0
2014-Oct-24 05:33N 37°59' W 122°27'6 6.3
2014-Oct-24 04:33N 37°54' W 122°22'2 2.2
2014-Oct-24 03:33N 37°55' W 122°24'0 0.1
2014-Oct-24 02:33N 37°55' W 122°24'0 0.0
2014-Oct-24 01:33N 37°55' W 122°24'0 0.0
2014-Oct-24 00:33N 37°55' W 122°24'0 0.1
2014-Oct-23 23:33N 37°55' W 122°24'3 3.0
2014-Oct-23 22:33N 37°58' W 122°26'2 1.5
2014-Oct-23 21:33N 37°59' W 122°27'0 0.0
2014-Oct-23 20:33N 37°59' W 122°27'0 0.0
2014-Oct-23 19:33N 37°59' W 122°27'3 2.6
2014-Oct-23 18:33N 37°57' W 122°26'1 0.6
2014-Oct-23 17:33N 37°57' W 122°26'2 1.9
2014-Oct-23 16:33N 37°59' W 122°27'0 0.0
2014-Oct-23 15:30N 37°59' W 122°27'0 0.0
2014-Oct-23 14:30N 37°59' W 122°27'0 0.0
2014-Oct-23 13:33N 37°59' W 122°27'0 0.0
2014-Oct-23 12:31N 37°59' W 122°27'0 0.0
2014-Oct-23 11:33N 37°59' W 122°27'0 0.0
2014-Oct-23 10:33N 37°59' W 122°27'0 0.0
2014-Oct-23 09:33N 37°59' W 122°27'0 0.0
2014-Oct-23 08:33N 37°59' W 122°27'0 0.0
2014-Oct-23 07:33N 37°59' W 122°27'0 0.0
2014-Oct-23 06:11N 37°59' W 122°27'0 0.0
2014-Oct-23 05:33N 37°59' W 122°27'3 3.0
2014-Oct-23 04:33N 37°56' W 122°26'0 0.3
2014-Oct-23 03:33N 37°57' W 122°26'6 4.9
2014-Oct-23 02:25N 38°01' W 122°22'5 5.9
2014-Oct-23 01:31N 38°04' W 122°16'0 0.1
2014-Oct-23 00:31N 38°03' W 122°16'7 6.6
2014-Oct-22 23:32N 38°01' W 122°23'6 6.7
2014-Oct-22 22:33N 37°54' W 122°23'0 0.1
2014-Oct-22 21:33N 37°54' W 122°23'0 0.5
2014-Oct-22 20:33N 37°54' W 122°22'0 0.0
2014-Oct-22 19:33N 37°54' W 122°22'5 5.1
2014-Oct-22 18:33N 37°58' W 122°26'2 2.1
2014-Oct-22 17:32N 38°00' W 122°25'8 7.7
2014-Oct-22 16:31N 38°04' W 122°16'17 3.3
2014-Oct-22 11:22N 38°03' W 121°54'13 4.1
2014-Oct-22 08:13N 38°03' W 122°11'6 6.3
2014-Oct-22 07:19N 38°03' W 122°18'5 6.3
2014-Oct-22 06:33N 38°01' W 122°23'5 5.3
2014-Oct-22 05:33N 37°56' W 122°25'4 3.6
2014-Oct-22 04:33N 37°59' W 122°26'0 0.0
2014-Oct-22 03:32N 37°59' W 122°26'0 0.1
2014-Oct-22 02:33N 37°59' W 122°26'0 0.1
2014-Oct-22 01:33N 37°59' W 122°26'0 0.0
2014-Oct-22 00:33N 37°59' W 122°26'0 0.0
2014-Oct-21 23:33N 37°59' W 122°26'1 1.3
2014-Oct-21 22:33N 37°60' W 122°25'10 9.4
2014-Oct-21 21:32N 38°04' W 122°14'  
Track history (hours):
 
Tides and Currents Weather Stations Pressure Air Temp Water Temp Dewpoint Dewpoint Depression Visibility Wind Speed Wind Dir Waves Ship Positions

Terri L. Brusco

Owner: Brusco Tug & Barge, Inc., Longview, WA. More information available from US FCC via Universal Licensing System and Coast Guard Vessel Documentation Center.

Last reported at 2014-Oct-31 19:33 UTC. Time now 2014-Oct-31 20:02 UTC.
Position N 37°32' W 122°12'.

Length 21 m; draft 3 m.

Type: Tug. MMSI: 367001830.

Date/timePositionNaut miles runAvg speedWind from/ knotsBaromVisibWave heightAir tempDewpointWater temp
2014-Oct-31 19:33N 37°32' W 122°12'0 0.3
2014-Oct-31 18:33N 37°33' W 122°12'0 0.1
2014-Oct-31 17:33N 37°33' W 122°12'0 0.4
2014-Oct-31 16:31N 37°32' W 122°12'0 0.1
2014-Oct-31 15:32N 37°32' W 122°12'0 0.2
2014-Oct-31 14:33N 37°33' W 122°12'1 0.5
2014-Oct-31 13:24N 37°32' W 122°12'0 0.1
2014-Oct-31 12:24N 37°32' W 122°12'0 0.2
2014-Oct-31 11:33N 37°32' W 122°12'0 0.4
2014-Oct-31 10:32N 37°33' W 122°12'1 0.5
2014-Oct-31 09:12N 37°32' W 122°12'0 0.0
2014-Oct-31 08:32N 37°32' W 122°12'1 0.7
2014-Oct-31 07:33N 37°33' W 122°12'1 0.9
2014-Oct-31 06:27N 37°32' W 122°12'0 0.4
2014-Oct-31 05:30N 37°32' W 122°12'0 0.2
2014-Oct-31 04:33N 37°32' W 122°12'0 0.1
2014-Oct-31 03:33N 37°32' W 122°12'0 0.2
2014-Oct-31 02:32N 37°33' W 122°12'1 0.7
2014-Oct-31 01:32N 37°32' W 122°12'1 0.5
2014-Oct-31 00:30N 37°32' W 122°12'0 0.1
2014-Oct-30 23:33N 37°32' W 122°12'0 0.2
2014-Oct-30 22:33N 37°33' W 122°12'0 0.2
2014-Oct-30 21:33N 37°32' W 122°12'0 0.2
2014-Oct-30 20:33N 37°33' W 122°12'0 0.1
2014-Oct-30 19:31N 37°33' W 122°12'1 1.3
2014-Oct-30 18:27N 37°31' W 122°12'0 0.1
2014-Oct-30 17:28N 37°31' W 122°12'1 0.9
2014-Oct-30 16:18N 37°30' W 122°13'2 2.6
2014-Oct-30 15:33N 37°32' W 122°12'6 5.9
2014-Oct-30 14:33N 37°36' W 122°17'9 9.2
2014-Oct-30 13:33N 37°45' W 122°22'5 5.4
2014-Oct-30 12:33N 37°49' W 122°25'4 3.6
2014-Oct-30 11:33N 37°47' W 122°22'4 3.8
2014-Oct-30 10:33N 37°43' W 122°21'4 3.8
2014-Oct-30 09:33N 37°39' W 122°19'4 3.7
2014-Oct-30 08:33N 37°36' W 122°17'5 5.1
2014-Oct-30 07:33N 37°33' W 122°12'3 2.9
2014-Oct-30 06:31N 37°30' W 122°13'0 0.0
2014-Oct-30 04:32N 37°30' W 122°13'0 0.0
2014-Oct-30 03:30N 37°30' W 122°13'0 0.0
2014-Oct-30 02:33N 37°30' W 122°13'0 0.0
2014-Oct-30 01:32N 37°30' W 122°13'0 0.0
2014-Oct-30 00:33N 37°30' W 122°13'0 0.0
2014-Oct-29 23:34N 37°30' W 122°13'0 0.0
2014-Oct-29 22:31N 37°30' W 122°13'2 1.5
2014-Oct-29 21:30N 37°32' W 122°12'0 0.1
2014-Oct-29 20:24N 37°32' W 122°12'1 1.6
2014-Oct-29 19:33N 37°33' W 122°11'0 0.1
2014-Oct-29 18:33N 37°33' W 122°12'0 0.0
2014-Oct-29 17:33N 37°33' W 122°12'0 0.0
2014-Oct-29 16:33N 37°33' W 122°12'0 0.0
2014-Oct-29 15:33N 37°33' W 122°12'0 0.0
2014-Oct-29 14:33N 37°33' W 122°12'0 0.1
2014-Oct-29 13:33N 37°33' W 122°11'0 0.0
2014-Oct-29 12:33N 37°33' W 122°11'0 0.0
2014-Oct-29 11:33N 37°33' W 122°11'0 0.0
2014-Oct-29 10:33N 37°33' W 122°11'0 0.0
2014-Oct-29 09:33N 37°33' W 122°11'5 5.0
2014-Oct-29 08:33N 37°36' W 122°16'1010.3
2014-Oct-29 07:33N 37°45' W 122°22'4 4.0
2014-Oct-29 06:34N 37°49' W 122°24'8 7.5
2014-Oct-29 05:33N 37°42' W 122°20'8 7.8
2014-Oct-29 04:33N 37°35' W 122°16'5 3.7
2014-Oct-29 03:17N 37°32' W 122°12'2 2.1
2014-Oct-29 02:33N 37°30' W 122°13'0 0.0
2014-Oct-28 22:05N 37°30' W 122°13'0 0.0
2014-Oct-28 21:30N 37°30' W 122°13'0 0.0
2014-Oct-28 20:32N 37°30' W 122°13'0 0.0
2014-Oct-28 19:27N 37°30' W 122°13'0 0.0
2014-Oct-28 18:32N 37°30' W 122°13'0 0.0
2014-Oct-28 17:33N 37°30' W 122°13'0 0.0
2014-Oct-28 16:33N 37°30' W 122°13'0 0.0
2014-Oct-28 15:33N 37°30' W 122°13'3 3.0
2014-Oct-28 14:33N 37°33' W 122°12'0 0.0
2014-Oct-28 13:33N 37°33' W 122°12'0 0.0
2014-Oct-28 12:33N 37°33' W 122°12'0 0.1
2014-Oct-28 11:33N 37°33' W 122°11'0 0.0
2014-Oct-28 10:33N 37°33' W 122°11'0 0.0
2014-Oct-28 09:33N 37°33' W 122°11'0 0.0
2014-Oct-28 08:33N 37°33' W 122°11'0 0.0
2014-Oct-28 07:33N 37°33' W 122°11'0 0.0
2014-Oct-28 06:33N 37°33' W 122°11'0 0.0
2014-Oct-28 05:33N 37°33' W 122°11'0 0.1
2014-Oct-28 04:33N 37°33' W 122°12'0 0.1
2014-Oct-28 03:33N 37°33' W 122°12'0 0.0
2014-Oct-28 02:33N 37°33' W 122°12'0 0.0
2014-Oct-28 01:33N 37°33' W 122°12'0 0.0
2014-Oct-28 00:33N 37°33' W 122°12'0 0.1
2014-Oct-27 23:33N 37°33' W 122°11'0 0.0
2014-Oct-27 22:33N 37°33' W 122°11'0 0.0
2014-Oct-27 21:32N 37°33' W 122°11'0 0.0
2014-Oct-27 20:33N 37°33' W 122°11'0 0.0
2014-Oct-27 19:33N 37°33' W 122°11'0 0.0
2014-Oct-27 18:33N 37°33' W 122°11'0 0.0
2014-Oct-27 17:33N 37°33' W 122°11'0 0.1
2014-Oct-27 16:33N 37°33' W 122°12'0 0.0
2014-Oct-27 15:33N 37°33' W 122°12'0 0.0
2014-Oct-27 14:33N 37°33' W 122°12'0 0.0
2014-Oct-27 13:33N 37°33' W 122°12'0 0.0
2014-Oct-27 12:33N 37°33' W 122°12'0 0.1
2014-Oct-27 11:33N 37°33' W 122°12'0 0.0
2014-Oct-27 10:33N 37°33' W 122°11'0 0.0
2014-Oct-27 09:33N 37°33' W 122°11'0 0.0
2014-Oct-27 08:33N 37°33' W 122°11'0 0.0
2014-Oct-27 07:33N 37°33' W 122°11'0 0.0
2014-Oct-27 06:33N 37°33' W 122°11'0 0.0
2014-Oct-27 05:33N 37°33' W 122°11'0 0.0
2014-Oct-27 04:33N 37°33' W 122°11'2 1.5
2014-Oct-27 03:33N 37°34' W 122°13'7 7.1
2014-Oct-27 02:33N 37°39' W 122°19'6 5.5
2014-Oct-27 01:33N 37°45' W 122°21'6 5.8
2014-Oct-27 00:33N 37°49' W 122°25'1 1.0
2014-Oct-26 23:33N 37°49' W 122°24'9 9.0
2014-Oct-26 22:33N 37°41' W 122°20'8 7.4
2014-Oct-26 21:31N 37°35' W 122°14'4 4.4
2014-Oct-26 20:32N 37°30' W 122°13'0 0.0
2014-Oct-26 19:33N 37°30' W 122°13'0 0.1
2014-Oct-26 18:10N 37°31' W 122°13'0 0.1
2014-Oct-26 17:10N 37°30' W 122°13'0 0.0
2014-Oct-26 16:33N 37°30' W 122°13'2 1.9
2014-Oct-26 15:33N 37°32' W 122°12'2 1.6
2014-Oct-26 14:25N 37°30' W 122°13'0 0.0
2014-Oct-26 13:28N 37°30' W 122°13'0 0.0
2014-Oct-26 12:30N 37°30' W 122°13'0 0.0
2014-Oct-26 11:27N 37°30' W 122°13'0 0.0
2014-Oct-26 10:29N 37°30' W 122°13'0 0.0
2014-Oct-26 09:32N 37°30' W 122°13'0 0.0
2014-Oct-26 08:33N 37°30' W 122°13'0 0.0
2014-Oct-26 07:30N 37°30' W 122°13'0 0.0
2014-Oct-26 06:32N 37°30' W 122°13'0 0.0
2014-Oct-26 05:33N 37°30' W 122°13'0 0.0
2014-Oct-26 04:30N 37°30' W 122°13'0 0.0
2014-Oct-26 03:31N 37°30' W 122°13'0 0.0
2014-Oct-26 02:33N 37°30' W 122°13'0 0.0
2014-Oct-26 01:31N 37°30' W 122°13'0 0.0
2014-Oct-26 00:33N 37°30' W 122°13'1 1.0
2014-Oct-25 23:30N 37°31' W 122°12'3 2.7
2014-Oct-25 22:33N 37°34' W 122°13'6 6.4
2014-Oct-25 21:33N 37°38' W 122°19'7 6.6
2014-Oct-25 20:33N 37°45' W 122°21'4 4.5
2014-Oct-25 19:33N 37°48' W 122°17'2 2.3
2014-Oct-25 18:33N 37°46' W 122°14'1 1.2
2014-Oct-25 17:33N 37°47' W 122°16'9 8.6
2014-Oct-25 16:33N 37°53' W 122°24'6 5.6
2014-Oct-25 15:33N 37°58' W 122°27'4 3.9
2014-Oct-25 14:33N 37°55' W 122°25'1 0.5
2014-Oct-25 13:33N 37°55' W 122°25'1 0.5
2014-Oct-25 12:33N 37°56' W 122°25'0 0.0
2014-Oct-25 11:33N 37°56' W 122°25'0 0.0
2014-Oct-25 10:33N 37°56' W 122°25'0 0.3
2014-Oct-25 09:33N 37°55' W 122°25'0 0.4
2014-Oct-25 08:33N 37°56' W 122°25'0 0.1
2014-Oct-25 07:33N 37°56' W 122°25'3 2.7
2014-Oct-25 06:33N 37°58' W 122°26'1 1.3
2014-Oct-25 05:33N 37°59' W 122°27'2 1.8
2014-Oct-25 04:33N 37°58' W 122°26'3 3.2
2014-Oct-25 03:33N 37°55' W 122°25'0 0.1
2014-Oct-25 02:33N 37°55' W 122°25'1 1.4
2014-Oct-25 01:33N 37°53' W 122°25'4 3.9
2014-Oct-25 00:33N 37°50' W 122°26'6 5.8
2014-Oct-24 23:33N 37°55' W 122°24'4 3.8
2014-Oct-24 22:33N 37°59' W 122°27'1 0.7
2014-Oct-24 21:33N 37°59' W 122°27'0 0.0
2014-Oct-24 20:33N 37°59' W 122°27'0 0.0
2014-Oct-24 19:33N 37°59' W 122°27'0 0.0
2014-Oct-24 18:33N 37°59' W 122°27'5 4.5
2014-Oct-24 17:33N 37°55' W 122°24'4 4.3
2014-Oct-24 16:33N 37°59' W 122°27'3 3.0
2014-Oct-24 15:33N 37°56' W 122°26'3 3.2
2014-Oct-24 14:33N 37°59' W 122°27'0 0.1
2014-Oct-24 13:33N 37°59' W 122°27'0 0.0
2014-Oct-24 12:33N 37°59' W 122°27'0 0.0
2014-Oct-24 11:33N 37°59' W 122°27'0 0.0
2014-Oct-24 10:33N 37°59' W 122°27'0 0.0
2014-Oct-24 09:33N 37°59' W 122°27'0 0.0
2014-Oct-24 08:33N 37°59' W 122°27'0 0.0
2014-Oct-24 07:33N 37°59' W 122°27'0 0.0
2014-Oct-24 06:33N 37°59' W 122°27'0 0.0
2014-Oct-24 05:33N 37°59' W 122°27'6 6.3
2014-Oct-24 04:33N 37°54' W 122°22'2 2.2
2014-Oct-24 03:33N 37°55' W 122°24'0 0.1
2014-Oct-24 02:33N 37°55' W 122°24'0 0.0
2014-Oct-24 01:33N 37°55' W 122°24'0 0.0
2014-Oct-24 00:33N 37°55' W 122°24'0 0.1
2014-Oct-23 23:33N 37°55' W 122°24'3 3.0
2014-Oct-23 22:33N 37°58' W 122°26'2 1.5
2014-Oct-23 21:33N 37°59' W 122°27'0 0.0
2014-Oct-23 20:33N 37°59' W 122°27'0 0.0
2014-Oct-23 19:33N 37°59' W 122°27'3 2.6
2014-Oct-23 18:33N 37°57' W 122°26'1 0.6
2014-Oct-23 17:33N 37°57' W 122°26'2 1.9
2014-Oct-23 16:33N 37°59' W 122°27'0 0.0
2014-Oct-23 15:30N 37°59' W 122°27'0 0.0
2014-Oct-23 14:30N 37°59' W 122°27'0 0.0
2014-Oct-23 13:33N 37°59' W 122°27'0 0.0
2014-Oct-23 12:31N 37°59' W 122°27'0 0.0
2014-Oct-23 11:33N 37°59' W 122°27'0 0.0
2014-Oct-23 10:33N 37°59' W 122°27'0 0.0
2014-Oct-23 09:33N 37°59' W 122°27'0 0.0
2014-Oct-23 08:33N 37°59' W 122°27'0 0.0
2014-Oct-23 07:33N 37°59' W 122°27'0 0.0
2014-Oct-23 06:11N 37°59' W 122°27'0 0.0
2014-Oct-23 05:33N 37°59' W 122°27'3 3.0
2014-Oct-23 04:33N 37°56' W 122°26'0 0.3
2014-Oct-23 03:33N 37°57' W 122°26'6 4.9
2014-Oct-23 02:25N 38°01' W 122°22'5 5.9
2014-Oct-23 01:31N 38°04' W 122°16'0 0.1
2014-Oct-23 00:31N 38°03' W 122°16'7 6.6
2014-Oct-22 23:32N 38°01' W 122°23'6 6.7
2014-Oct-22 22:33N 37°54' W 122°23'0 0.1
2014-Oct-22 21:33N 37°54' W 122°23'0 0.5
2014-Oct-22 20:33N 37°54' W 122°22'0 0.0
2014-Oct-22 19:33N 37°54' W 122°22'5 5.1
2014-Oct-22 18:33N 37°58' W 122°26'2 2.1
2014-Oct-22 17:32N 38°00' W 122°25'8 7.7
2014-Oct-22 16:31N 38°04' W 122°16'17 3.3
2014-Oct-22 11:22N 38°03' W 121°54'13 4.1
2014-Oct-22 08:13N 38°03' W 122°11'6 6.3
2014-Oct-22 07:19N 38°03' W 122°18'5 6.3
2014-Oct-22 06:33N 38°01' W 122°23'5 5.3
2014-Oct-22 05:33N 37°56' W 122°25'4 3.6
2014-Oct-22 04:33N 37°59' W 122°26'0 0.0
2014-Oct-22 03:32N 37°59' W 122°26'0 0.1
2014-Oct-22 02:33N 37°59' W 122°26'0 0.1
2014-Oct-22 01:33N 37°59' W 122°26'0 0.0
2014-Oct-22 00:33N 37°59' W 122°26'0 0.0
2014-Oct-21 23:33N 37°59' W 122°26'1 1.3
2014-Oct-21 22:33N 37°60' W 122°25'10 9.4
2014-Oct-21 21:32N 38°04' W 122°14'  

Dump ship's entire track history